createdAt,value
2019-02-06T00:01:33.341Z,5.06
2019-02-06T00:04:00.876Z,5.01
2019-02-06T00:06:28.342Z,4.89
2019-02-06T00:08:55.890Z,5.11
2019-02-06T00:11:23.374Z,4.93
2019-02-06T00:13:50.911Z,4.92
2019-02-06T00:16:18.462Z,4.77
2019-02-06T00:18:45.928Z,4.98
2019-02-06T00:21:13.402Z,4.75
2019-02-06T00:23:40.968Z,5.01
2019-02-06T00:26:08.499Z,5.04
2019-02-06T00:28:36.738Z,5.06
2019-02-06T00:31:04.232Z,4.87
2019-02-06T00:33:31.734Z,5.17
2019-02-06T00:35:59.293Z,5.08
2019-02-06T00:38:26.786Z,4.90
2019-02-06T00:40:54.254Z,4.97
2019-02-06T00:43:21.742Z,4.82
2019-02-06T00:45:49.222Z,4.89
2019-02-06T00:48:16.672Z,5.04
2019-02-06T00:50:44.193Z,5.11
2019-02-06T00:53:11.689Z,4.92
2019-02-06T00:55:39.190Z,5.05
2019-02-06T00:58:06.716Z,4.83
2019-02-06T01:00:34.158Z,4.95
2019-02-06T01:03:01.628Z,4.84
2019-02-06T01:05:38.019Z,4.58
2019-02-06T01:07:56.605Z,4.66
2019-02-06T01:10:24.104Z,4.64
2019-02-06T01:12:51.582Z,4.63
2019-02-06T01:15:19.087Z,4.68
2019-02-06T01:17:46.604Z,4.66
2019-02-06T01:20:14.828Z,4.69
2019-02-06T01:22:42.296Z,4.63
2019-02-06T01:25:09.790Z,4.69
2019-02-06T01:27:37.267Z,4.72
2019-02-06T01:30:13.157Z,4.75
2019-02-06T01:32:40.589Z,4.52
2019-02-06T01:35:08.723Z,4.65
2019-02-06T01:37:37.183Z,4.52
2019-02-06T01:40:04.675Z,4.30
2019-02-06T01:42:32.124Z,4.10
2019-02-06T01:44:59.582Z,4.37
2019-02-06T01:47:27.036Z,4.35
2019-02-06T01:49:54.533Z,4.34
2019-02-06T01:52:22.076Z,4.42
2019-02-06T01:54:49.677Z,4.09
2019-02-06T01:57:17.557Z,4.14
2019-02-06T01:59:45.066Z,4.20
2019-02-06T02:02:12.529Z,4.38
2019-02-06T02:04:40.009Z,4.28
2019-02-06T02:07:07.665Z,4.49
2019-02-06T02:09:35.144Z,4.40
2019-02-06T02:12:02.585Z,4.27
2019-02-06T02:14:30.118Z,4.65
2019-02-06T02:16:57.561Z,4.50
2019-02-06T02:19:25.038Z,4.59
2019-02-06T02:21:52.515Z,4.71
2019-02-06T02:24:19.945Z,4.67
2019-02-06T02:26:47.472Z,4.75
2019-02-06T02:29:14.976Z,4.84
2019-02-06T02:31:43.545Z,4.87
2019-02-06T02:34:11.058Z,4.75
2019-02-06T02:36:38.571Z,4.77
2019-02-06T02:39:06.046Z,4.85
2019-02-06T02:41:33.598Z,4.80
2019-02-06T02:44:01.161Z,4.54
2019-02-06T02:46:28.678Z,4.78
2019-02-06T02:48:56.145Z,4.87
2019-02-06T02:51:23.593Z,4.97
2019-02-06T02:53:51.048Z,4.31
2019-02-06T02:56:18.600Z,4.70
2019-02-06T02:58:46.088Z,4.78
2019-02-06T03:01:16.348Z,4.55
2019-02-06T03:03:45.384Z,4.84
2019-02-06T03:06:12.936Z,4.76
2019-02-06T03:08:40.307Z,4.81
2019-02-06T03:11:07.820Z,4.85
2019-02-06T03:13:35.358Z,4.61
2019-02-06T03:16:02.834Z,4.67
2019-02-06T03:18:30.305Z,4.64
2019-02-06T03:20:57.771Z,4.80
2019-02-06T03:23:25.224Z,4.83
2019-02-06T03:25:52.699Z,4.82
2019-02-06T03:28:20.198Z,4.79
2019-02-06T03:30:47.664Z,4.73
2019-02-06T03:33:15.132Z,4.74
2019-02-06T03:35:42.628Z,4.80
2019-02-06T03:38:10.125Z,4.68
2019-02-06T03:40:37.675Z,4.68
2019-02-06T03:43:05.144Z,4.65
2019-02-06T03:45:32.614Z,4.52
2019-02-06T03:48:00.112Z,4.50
2019-02-06T03:50:27.562Z,4.66
2019-02-06T03:52:55.049Z,4.61
2019-02-06T03:55:22.511Z,4.64
2019-02-06T03:57:49.996Z,4.70
2019-02-06T04:00:18.493Z,4.65
2019-02-06T04:02:45.970Z,4.40
2019-02-06T04:05:13.432Z,4.66
2019-02-06T04:07:40.927Z,4.73
2019-02-06T04:10:09.187Z,4.80
2019-02-06T04:12:36.638Z,4.63
2019-02-06T04:15:04.113Z,4.78
2019-02-06T04:17:31.577Z,4.69
2019-02-06T04:19:59.054Z,4.72
2019-02-06T04:22:26.535Z,4.56
2019-02-06T04:24:54.051Z,4.53
2019-02-06T04:27:21.645Z,4.77
2019-02-06T04:29:49.047Z,4.69
2019-02-06T04:32:16.482Z,4.65
2019-02-06T04:34:43.950Z,4.53
2019-02-06T04:37:11.435Z,4.66
2019-02-06T04:39:38.922Z,4.51
2019-02-06T04:42:06.372Z,4.53
2019-02-06T04:44:33.848Z,4.65
2019-02-06T04:47:03.030Z,4.68
2019-02-06T04:49:30.636Z,4.64
2019-02-06T04:51:58.179Z,4.47
2019-02-06T04:54:25.714Z,4.72
2019-02-06T04:56:53.102Z,4.60
2019-02-06T04:59:20.630Z,4.41
2019-02-06T05:01:48.122Z,4.67
2019-02-06T05:04:15.587Z,4.61
2019-02-06T05:06:43.063Z,4.45
2019-02-06T05:09:11.078Z,4.65
2019-02-06T05:11:38.583Z,4.58
2019-02-06T05:14:06.063Z,4.49
2019-02-06T05:16:33.525Z,4.72
2019-02-06T05:19:01.027Z,4.58
2019-02-06T05:21:28.499Z,4.66
2019-02-06T05:23:55.939Z,4.76
2019-02-06T05:26:23.398Z,4.58
2019-02-06T05:28:50.895Z,4.59
2019-02-06T05:31:18.363Z,4.53
2019-02-06T05:33:45.825Z,4.61
2019-02-06T05:36:13.294Z,4.65
2019-02-06T05:38:41.734Z,4.73
2019-02-06T05:41:09.181Z,4.72
2019-02-06T05:43:36.701Z,4.76
2019-02-06T05:46:04.139Z,4.74
2019-02-06T05:48:31.633Z,4.53
2019-02-06T05:50:59.125Z,4.67
2019-02-06T05:53:26.586Z,4.70
2019-02-06T05:55:54.034Z,4.66
2019-02-06T05:58:23.027Z,4.55
2019-02-06T06:00:50.642Z,4.52
2019-02-06T06:03:18.117Z,4.39
2019-02-06T06:05:45.554Z,4.50
2019-02-06T06:08:13.092Z,4.65
2019-02-06T06:10:40.551Z,4.40
2019-02-06T06:13:08.119Z,4.44
2019-02-06T06:15:35.580Z,4.58
2019-02-06T06:18:03.051Z,4.64
2019-02-06T06:20:30.536Z,4.72
2019-02-06T06:22:57.994Z,4.37
2019-02-06T06:25:25.519Z,4.64
2019-02-06T06:27:52.994Z,4.62
2019-02-06T06:30:20.496Z,4.63
2019-02-06T06:32:48.025Z,4.45
2019-02-06T06:35:15.494Z,4.44
2019-02-06T06:37:42.977Z,4.51
2019-02-06T06:40:12.078Z,4.44
2019-02-06T06:42:40.481Z,4.61
2019-02-06T06:45:08.732Z,4.57
2019-02-06T06:47:37.061Z,4.52
2019-02-06T06:50:04.524Z,4.41
2019-02-06T06:52:31.975Z,4.60
2019-02-06T06:54:59.484Z,4.53
2019-02-06T06:57:26.999Z,4.67
2019-02-06T06:59:55.640Z,4.68
2019-02-06T07:02:21.993Z,4.48
2019-02-06T07:04:49.571Z,4.53
2019-02-06T07:07:17.067Z,4.63
2019-02-06T07:09:44.558Z,4.69
2019-02-06T07:12:12.102Z,4.47
2019-02-06T07:14:39.599Z,4.51
2019-02-06T07:17:07.119Z,4.62
2019-02-06T07:19:34.633Z,4.49
2019-02-06T07:22:02.154Z,4.52
2019-02-06T07:24:29.631Z,4.61
2019-02-06T07:26:57.109Z,4.48
2019-02-06T07:29:24.574Z,4.46
2019-02-06T07:31:52.056Z,4.75
2019-02-06T07:34:19.535Z,4.37
2019-02-06T07:36:47.025Z,4.60
2019-02-06T07:39:14.455Z,4.57
2019-02-06T07:41:41.919Z,4.75
2019-02-06T07:44:09.385Z,4.71
2019-02-06T07:46:36.846Z,4.80
2019-02-06T07:49:04.352Z,4.96
2019-02-06T07:51:31.801Z,4.89
2019-02-06T07:54:00.529Z,4.85
2019-02-06T07:56:27.981Z,4.85
2019-02-06T07:58:55.453Z,4.85
2019-02-06T08:01:22.889Z,4.98
2019-02-06T08:03:50.387Z,4.92
2019-02-06T08:06:17.888Z,4.75
2019-02-06T08:08:45.339Z,4.96
2019-02-06T08:11:12.782Z,5.07
2019-02-06T08:13:41.435Z,5.18
2019-02-06T08:16:09.081Z,5.11
2019-02-06T08:18:36.578Z,5.25
2019-02-06T08:21:04.033Z,5.24
2019-02-06T08:23:31.483Z,5.00
2019-02-06T08:25:58.977Z,5.17
2019-02-06T08:28:26.440Z,5.15
2019-02-06T08:30:53.959Z,5.16
2019-02-06T08:33:21.423Z,5.29
2019-02-06T08:35:48.916Z,5.36
2019-02-06T08:38:16.489Z,5.33
2019-02-06T08:40:44.983Z,5.35
2019-02-06T08:43:12.442Z,5.42
2019-02-06T08:45:39.955Z,5.36
2019-02-06T08:48:07.429Z,5.42
2019-02-06T08:50:34.892Z,5.16
2019-02-06T08:53:02.324Z,5.46
2019-02-06T08:55:30.715Z,5.21
2019-02-06T08:57:59.699Z,5.17
2019-02-06T09:00:32.042Z,5.15
2019-02-06T09:02:59.491Z,5.10
2019-02-06T09:05:26.981Z,5.18
2019-02-06T09:07:54.465Z,5.33
2019-02-06T09:10:21.959Z,5.17
2019-02-06T09:12:49.455Z,5.40
2019-02-06T09:15:16.977Z,5.31
2019-02-06T09:17:44.444Z,5.30
2019-02-06T09:20:12.671Z,5.28
2019-02-06T09:22:40.134Z,5.50
2019-02-06T09:25:07.673Z,5.31
2019-02-06T09:27:35.143Z,5.37
2019-02-06T09:30:02.602Z,5.33
2019-02-06T09:32:30.095Z,5.32
2019-02-06T09:34:57.550Z,5.28
2019-02-06T09:37:25.054Z,5.41
2019-02-06T09:39:52.514Z,5.47
2019-02-06T09:42:20.002Z,5.50
2019-02-06T09:44:47.569Z,5.51
2019-02-06T09:47:15.010Z,5.62
2019-02-06T09:49:42.465Z,5.77
2019-02-06T09:52:09.926Z,5.45
2019-02-06T09:54:37.375Z,5.69
2019-02-06T09:57:04.833Z,5.60
2019-02-06T09:59:32.295Z,5.44
2019-02-06T10:01:59.798Z,5.88
2019-02-06T10:04:27.250Z,5.68
2019-02-06T10:06:54.719Z,5.86
2019-02-06T10:09:23.140Z,5.70
2019-02-06T10:11:50.300Z,5.93
2019-02-06T10:14:17.817Z,5.81
2019-02-06T10:16:45.312Z,6.09
2019-02-06T10:19:13.718Z,5.97
2019-02-06T10:21:41.106Z,6.17
2019-02-06T10:24:08.621Z,6.18
2019-02-06T10:26:36.064Z,6.28
2019-02-06T10:29:04.547Z,6.40
2019-02-06T10:31:32.890Z,6.48
2019-02-06T10:33:59.526Z,6.52
2019-02-06T10:36:27.012Z,6.51
2019-02-06T10:38:54.500Z,6.74
2019-02-06T10:41:21.965Z,6.69
2019-02-06T10:43:49.453Z,6.57
2019-02-06T10:46:18.338Z,6.77
2019-02-06T10:48:44.711Z,6.88
2019-02-06T10:51:12.195Z,6.92
2019-02-06T10:53:39.707Z,7.04
2019-02-06T10:56:07.196Z,6.94
2019-02-06T10:58:34.650Z,7.01
2019-02-06T11:01:02.165Z,6.89
2019-02-06T11:03:29.605Z,7.13
2019-02-06T11:05:57.087Z,7.12
2019-02-06T11:08:24.553Z,7.20
2019-02-06T11:10:52.034Z,7.04
2019-02-06T11:13:19.507Z,7.05
2019-02-06T11:15:46.967Z,7.10
2019-02-06T11:18:14.479Z,7.16
2019-02-06T11:20:42.057Z,7.03
2019-02-06T11:23:09.546Z,7.13
2019-02-06T11:25:37.056Z,7.07
2019-02-06T11:28:04.535Z,7.16
2019-02-06T11:30:32.042Z,7.32
2019-02-06T11:32:59.538Z,7.21
2019-02-06T11:35:27.047Z,7.17
2019-02-06T11:37:55.290Z,7.22
2019-02-06T11:40:22.836Z,6.90
2019-02-06T11:42:50.331Z,7.16
2019-02-06T11:45:17.827Z,7.46
2019-02-06T11:47:45.392Z,7.49
2019-02-06T11:50:12.827Z,7.63
2019-02-06T11:52:40.397Z,7.68
2019-02-06T11:55:08.673Z,7.54
2019-02-06T11:57:35.350Z,7.66
2019-02-06T12:00:02.815Z,7.78
2019-02-06T12:02:37.046Z,7.70
2019-02-06T12:04:57.756Z,7.54
2019-02-06T12:07:25.214Z,7.79
2019-02-06T12:09:52.667Z,7.69
2019-02-06T12:12:20.143Z,7.62
2019-02-06T12:14:47.649Z,7.68
2019-02-06T12:17:15.107Z,7.81
2019-02-06T12:19:42.539Z,7.67
2019-02-06T12:22:10.057Z,7.77
2019-02-06T12:24:37.525Z,7.56
2019-02-06T12:27:05.018Z,7.71
2019-02-06T12:29:32.484Z,7.73
2019-02-06T12:31:59.976Z,7.75
2019-02-06T12:34:27.486Z,7.73
2019-02-06T12:36:54.960Z,7.82
2019-02-06T12:39:22.802Z,7.95
2019-02-06T12:41:50.249Z,7.66
2019-02-06T12:44:17.707Z,7.77
2019-02-06T12:46:45.238Z,7.88
2019-02-06T12:49:14.549Z,7.80
2019-02-06T12:51:40.336Z,7.99
2019-02-06T12:54:07.857Z,7.76
2019-02-06T12:56:35.333Z,7.93
2019-02-06T12:59:02.823Z,7.87
2019-02-06T13:01:30.292Z,7.98
2019-02-06T13:03:57.811Z,7.96
2019-02-06T13:06:26.042Z,7.95
2019-02-06T13:08:53.557Z,8.00
2019-02-06T13:11:21.021Z,8.09
2019-02-06T13:13:48.513Z,7.97
2019-02-06T13:16:16.011Z,8.15
2019-02-06T13:18:44.372Z,8.11
2019-02-06T13:21:12.014Z,8.23
2019-02-06T13:23:39.483Z,8.27
2019-02-06T13:26:06.926Z,8.35
2019-02-06T13:28:34.407Z,8.47
2019-02-06T13:31:01.875Z,8.46
2019-02-06T13:33:29.390Z,8.50
2019-02-06T13:35:56.879Z,8.66
2019-02-06T13:38:26.261Z,8.47
2019-02-06T13:40:54.610Z,8.57
2019-02-06T13:43:22.255Z,8.45
2019-02-06T13:45:49.701Z,8.69
2019-02-06T13:48:17.270Z,8.81
2019-02-06T13:50:44.748Z,8.87
2019-02-06T13:53:12.227Z,8.83
2019-02-06T13:55:39.707Z,9.06
2019-02-06T13:58:07.183Z,8.81
2019-02-06T14:00:34.616Z,8.96
2019-02-06T14:03:02.088Z,8.72
2019-02-06T14:05:29.560Z,8.69
2019-02-06T14:07:57.791Z,8.76
2019-02-06T14:10:25.274Z,8.74
2019-02-06T14:12:52.738Z,8.79
2019-02-06T14:15:20.338Z,8.85
2019-02-06T14:17:47.928Z,8.90
2019-02-06T14:20:15.548Z,8.91
2019-02-06T14:22:43.037Z,9.00
2019-02-06T14:25:29.080Z,8.93
2019-02-06T14:28:29.265Z,9.22
2019-02-06T14:31:15.275Z,9.00
2019-02-06T14:34:00.403Z,9.26
2019-02-06T14:36:41.470Z,9.13
2019-02-06T14:39:11.687Z,9.16
2019-02-06T14:41:43.445Z,9.36
2019-02-06T14:44:13.727Z,9.38
2019-02-06T14:46:50.583Z,9.34
2019-02-06T14:49:45.556Z,9.22
2019-02-06T14:52:37.809Z,9.12
2019-02-06T14:55:15.198Z,9.01
2019-02-06T14:57:49.242Z,9.12
2019-02-06T15:00:24.380Z,8.95
2019-02-06T15:03:10.179Z,9.16
2019-02-06T15:05:39.495Z,9.15
2019-02-06T15:08:11.807Z,9.09
2019-02-06T15:10:46.840Z,8.86
2019-02-06T15:13:21.022Z,9.21
2019-02-06T15:16:04.973Z,9.03
2019-02-06T15:18:34.217Z,9.04
2019-02-06T15:24:17.642Z,8.86
2019-02-06T15:27:08.475Z,8.91
2019-02-06T15:29:55.406Z,9.08
2019-02-06T15:32:40.576Z,9.16
2019-02-06T15:35:25.682Z,9.09
2019-02-06T15:38:15.941Z,8.93
2019-02-06T15:40:54.868Z,8.95
2019-02-06T15:43:39.748Z,9.02
2019-02-06T15:46:25.052Z,9.01
2019-02-06T15:49:02.214Z,8.90
2019-02-06T15:51:34.636Z,8.99
2019-02-06T15:54:23.318Z,8.88
2019-02-06T15:57:00.466Z,8.96
2019-02-06T15:59:27.943Z,8.97
2019-02-06T16:01:57.064Z,9.03
2019-02-06T16:04:34.205Z,8.90
2019-02-06T16:07:13.257Z,8.82
2019-02-06T16:09:52.541Z,8.74
2019-02-06T16:12:20.883Z,8.83
2019-02-06T16:14:58.308Z,8.89
2019-02-06T16:17:42.329Z,8.97
2019-02-06T16:20:31.589Z,9.01
2019-02-06T16:23:03.616Z,9.02
2019-02-06T16:25:48.813Z,8.83
2019-02-06T16:31:31.637Z,8.86
2019-02-06T16:34:04.883Z,8.92
2019-02-06T16:36:38.909Z,8.90
2019-02-06T16:39:06.469Z,8.73
2019-02-06T16:41:37.736Z,8.66
2019-02-06T16:44:34.989Z,8.77
2019-02-06T16:47:12.163Z,8.60
2019-02-06T16:49:44.576Z,8.67
2019-02-06T16:52:12.054Z,8.52
2019-02-06T16:55:00.182Z,8.61
2019-02-06T16:57:28.565Z,8.51
2019-02-06T17:00:05.707Z,8.67
2019-02-06T17:02:36.863Z,8.73
2019-02-06T17:05:30.746Z,8.44
2019-02-06T17:08:23.045Z,8.50
2019-02-06T17:10:57.105Z,8.32
2019-02-06T17:13:44.669Z,8.44
2019-02-06T17:16:21.097Z,8.13
2019-02-06T17:19:06.052Z,8.26
2019-02-06T17:22:04.161Z,8.33
2019-02-06T17:24:32.522Z,8.41
2019-02-06T17:27:05.426Z,8.23
2019-02-06T17:29:53.263Z,8.54
2019-02-06T17:32:31.494Z,8.44
2019-02-06T17:35:17.449Z,8.33
2019-02-06T17:37:47.823Z,8.24
2019-02-06T17:40:32.990Z,8.38
2019-02-06T17:43:01.351Z,8.34
2019-02-06T17:45:44.405Z,8.45
2019-02-06T17:48:15.357Z,8.63
2019-02-06T17:50:42.786Z,8.50
2019-02-06T17:53:30.800Z,8.47
2019-02-06T17:55:58.237Z,8.47
2019-02-06T17:58:26.021Z,8.42
2019-02-06T18:00:55.246Z,8.39
2019-02-06T18:03:22.713Z,8.34
2019-02-06T18:05:50.214Z,8.55
2019-02-06T18:08:17.676Z,8.46
2019-02-06T18:10:45.127Z,8.37
2019-02-06T18:13:12.557Z,8.32
2019-02-06T18:15:40.031Z,8.50
2019-02-06T18:18:07.452Z,8.47
2019-02-06T18:20:34.914Z,8.46
2019-02-06T18:23:02.397Z,8.52
2019-02-06T18:25:29.831Z,8.32
2019-02-06T18:27:57.340Z,8.29
2019-02-06T18:30:24.795Z,8.19
2019-02-06T18:32:52.305Z,8.31
2019-02-06T18:35:19.770Z,8.19
2019-02-06T18:37:47.199Z,8.25
2019-02-06T18:40:14.643Z,8.28
2019-02-06T18:42:42.115Z,8.09
2019-02-06T18:45:10.544Z,8.32
2019-02-06T18:47:38.017Z,8.24
2019-02-06T18:50:05.464Z,8.37
2019-02-06T18:52:32.921Z,8.40
2019-02-06T18:55:00.356Z,8.20
2019-02-06T18:57:27.817Z,8.24
2019-02-06T18:59:55.341Z,8.20
2019-02-06T19:02:22.827Z,8.30
2019-02-06T19:04:50.350Z,8.09
2019-02-06T19:07:17.824Z,8.15
2019-02-06T19:09:45.353Z,8.16
2019-02-06T19:12:12.897Z,8.26
2019-02-06T19:14:40.377Z,8.35
2019-02-06T19:17:07.852Z,8.16
2019-02-06T19:19:35.319Z,8.23
2019-02-06T19:22:02.760Z,8.30
2019-02-06T19:24:30.246Z,8.27
2019-02-06T19:26:57.839Z,8.19
2019-02-06T19:29:25.323Z,8.34
2019-02-06T19:31:52.762Z,8.25
2019-02-06T19:34:20.225Z,7.93
2019-02-06T19:36:47.692Z,8.23
2019-02-06T19:39:15.197Z,8.19
2019-02-06T19:41:42.662Z,8.36
2019-02-06T19:44:11.413Z,8.28
2019-02-06T19:46:37.607Z,8.30
2019-02-06T19:49:05.082Z,8.24
2019-02-06T19:51:32.550Z,8.22
2019-02-06T19:54:00.047Z,8.35
2019-02-06T19:56:28.333Z,7.93
2019-02-06T19:58:55.788Z,8.09
2019-02-06T20:04:03.456Z,8.10
2019-02-06T20:06:30.947Z,8.00
2019-02-06T20:08:58.566Z,8.09
2019-02-06T20:11:26.007Z,8.11
2019-02-06T20:13:53.460Z,8.07
2019-02-06T20:16:20.936Z,8.20
2019-02-06T20:18:48.435Z,8.16
2019-02-06T20:21:15.930Z,8.23
2019-02-06T20:23:43.408Z,7.98
2019-02-06T20:26:10.858Z,8.29
2019-02-06T20:28:38.371Z,8.17
2019-02-06T20:31:05.873Z,8.24
2019-02-06T20:33:34.245Z,8.39
2019-02-06T20:36:01.846Z,7.98
2019-02-06T20:38:29.309Z,8.20
2019-02-06T20:40:56.770Z,8.12
2019-02-06T20:43:24.238Z,8.06
2019-02-06T20:45:51.714Z,8.11
2019-02-06T20:48:19.215Z,8.29
2019-02-06T20:50:46.696Z,8.30
2019-02-06T20:53:14.217Z,8.01
2019-02-06T20:55:41.684Z,8.08
2019-02-06T20:58:09.125Z,8.06
2019-02-06T21:00:37.417Z,8.21
2019-02-06T21:03:04.916Z,8.26
2019-02-06T21:05:32.397Z,8.29
2019-02-06T21:07:59.914Z,8.28
2019-02-06T21:10:29.008Z,8.38
2019-02-06T21:12:56.457Z,8.41
2019-02-06T21:15:23.935Z,8.34
2019-02-06T21:17:51.385Z,8.38
2019-02-06T21:20:18.829Z,8.45
2019-02-06T21:22:46.294Z,8.22
2019-02-06T21:25:13.738Z,8.38
2019-02-06T21:27:41.192Z,8.18
2019-02-06T21:30:17.342Z,8.03
2019-02-06T21:32:44.847Z,8.15
2019-02-06T21:35:12.294Z,8.24
2019-02-06T21:37:39.763Z,8.15
2019-02-06T21:40:08.122Z,7.96
2019-02-06T21:42:35.869Z,8.20
2019-02-06T21:45:03.105Z,7.83
2019-02-06T21:47:30.545Z,8.10
2019-02-06T21:49:58.009Z,8.01
2019-02-06T21:52:26.376Z,7.75
2019-02-06T21:54:53.928Z,7.89
2019-02-06T21:57:21.413Z,7.93
2019-02-06T21:59:48.933Z,8.20
2019-02-06T22:02:16.399Z,8.01
2019-02-06T22:04:43.851Z,7.78
2019-02-06T22:07:11.306Z,7.93
2019-02-06T22:09:38.772Z,7.93
2019-02-06T22:12:06.234Z,7.95
2019-02-06T22:14:33.724Z,7.59
2019-02-06T22:17:01.218Z,7.73
2019-02-06T22:19:28.699Z,7.57
2019-02-06T22:21:56.174Z,7.57
2019-02-06T22:24:23.673Z,7.58
2019-02-06T22:26:51.115Z,7.46
2019-02-06T22:29:18.542Z,7.43
2019-02-06T22:31:45.991Z,7.44
2019-02-06T22:34:13.485Z,7.63
2019-02-06T22:36:42.015Z,7.49
2019-02-06T22:39:09.522Z,7.51
2019-02-06T22:41:36.985Z,7.52
2019-02-06T22:44:06.610Z,7.55
2019-02-06T22:46:32.000Z,7.46
2019-02-06T22:48:59.481Z,7.54
2019-02-06T22:51:26.964Z,7.52
2019-02-06T22:53:54.454Z,7.33
2019-02-06T22:56:21.889Z,7.52
2019-02-06T22:58:50.735Z,7.33
2019-02-06T23:01:18.276Z,7.52
2019-02-06T23:03:45.706Z,7.36
2019-02-06T23:06:13.178Z,7.60
2019-02-06T23:08:40.638Z,7.29
2019-02-06T23:11:08.122Z,7.43
2019-02-06T23:13:35.546Z,7.22
2019-02-06T23:16:02.992Z,7.35
2019-02-06T23:18:30.431Z,7.39
2019-02-06T23:20:57.887Z,7.45
2019-02-06T23:23:25.368Z,7.19
2019-02-06T23:25:52.827Z,7.15
2019-02-06T23:28:20.270Z,7.15
2019-02-06T23:30:47.720Z,7.19
2019-02-06T23:33:15.180Z,7.31
2019-02-06T23:35:42.608Z,6.87
2019-02-06T23:38:10.195Z,7.05
2019-02-06T23:40:37.577Z,7.09
2019-02-06T23:43:05.085Z,7.02
2019-02-06T23:45:32.851Z,6.79
2019-02-06T23:48:00.294Z,6.91
2019-02-06T23:50:27.835Z,7.11
2019-02-06T23:52:55.281Z,7.02
2019-02-06T23:55:22.711Z,7.06
2019-02-06T23:57:50.138Z,7.02
